sensor_id;sensor_type;location;lat;lon;timestamp;pressure;altitude;pressure_sealevel;temperature;humidity
63883;BME280;50047;50.596;30.466;2022-07-23T00:00:25;99381.47;;;23.24;48.16
63883;BME280;50047;50.596;30.466;2022-07-23T00:02:53;99385.50;;;23.14;48.32
63883;BME280;50047;50.596;30.466;2022-07-23T00:05:20;99383.32;;;23.02;48.45
63883;BME280;50047;50.596;30.466;2022-07-23T00:07:47;99382.17;;;22.88;48.82
63883;BME280;50047;50.596;30.466;2022-07-23T00:10:15;99386.46;;;22.83;49.13
63883;BME280;50047;50.596;30.466;2022-07-23T00:12:42;99384.66;;;22.73;49.97
63883;BME280;50047;50.596;30.466;2022-07-23T00:15:18;99384.20;;;23.28;50.35
63883;BME280;50047;50.596;30.466;2022-07-23T00:17:45;99385.13;;;23.79;49.22
63883;BME280;50047;50.596;30.466;2022-07-23T00:20:13;99392.58;;;23.91;48.67
63883;BME280;50047;50.596;30.466;2022-07-23T00:22:52;99390.42;;;23.82;48.38
63883;BME280;50047;50.596;30.466;2022-07-23T00:25:21;99389.16;;;23.63;48.53
63883;BME280;50047;50.596;30.466;2022-07-23T00:27:54;99393.11;;;23.50;48.84
63883;BME280;50047;50.596;30.466;2022-07-23T00:30:22;99389.13;;;23.37;49.32
63883;BME280;50047;50.596;30.466;2022-07-23T00:32:51;99389.43;;;23.24;49.89
63883;BME280;50047;50.596;30.466;2022-07-23T00:35:25;99389.57;;;23.11;49.86
63883;BME280;50047;50.596;30.466;2022-07-23T00:37:54;99389.84;;;23.05;50.39
63883;BME280;50047;50.596;30.466;2022-07-23T00:40:22;99391.92;;;22.98;50.93
63883;BME280;50047;50.596;30.466;2022-07-23T00:42:50;99396.55;;;22.89;51.26
63883;BME280;50047;50.596;30.466;2022-07-23T00:45:18;99393.63;;;23.13;51.90
63883;BME280;50047;50.596;30.466;2022-07-23T00:47:46;99395.15;;;23.57;51.42
63883;BME280;50047;50.596;30.466;2022-07-23T00:50:13;99396.59;;;23.73;51.00
63883;BME280;50047;50.596;30.466;2022-07-23T00:52:41;99397.51;;;23.77;50.48
63883;BME280;50047;50.596;30.466;2022-07-23T00:55:10;99404.54;;;23.67;50.49
63883;BME280;50047;50.596;30.466;2022-07-23T00:57:39;99402.73;;;23.54;50.34
63883;BME280;50047;50.596;30.466;2022-07-23T01:00:13;99401.06;;;23.42;50.23
63883;BME280;50047;50.596;30.466;2022-07-23T01:02:41;99403.36;;;23.21;50.46
63883;BME280;50047;50.596;30.466;2022-07-23T01:05:09;99404.05;;;23.06;50.72
63883;BME280;50047;50.596;30.466;2022-07-23T01:07:37;99404.98;;;22.95;50.92
63883;BME280;50047;50.596;30.466;2022-07-23T01:10:06;99409.83;;;22.87;50.74
63883;BME280;50047;50.596;30.466;2022-07-23T01:12:54;99417.96;;;22.72;50.85
63883;BME280;50047;50.596;30.466;2022-07-23T01:15:22;99420.25;;;22.57;51.31
63883;BME280;50047;50.596;30.466;2022-07-23T01:17:50;99418.77;;;22.86;52.65
63883;BME280;50047;50.596;30.466;2022-07-23T01:20:18;99414.35;;;23.45;51.99
63883;BME280;50047;50.596;30.466;2022-07-23T01:22:46;99413.38;;;23.75;51.30
63883;BME280;50047;50.596;30.466;2022-07-23T01:25:14;99416.48;;;23.71;51.19
63883;BME280;50047;50.596;30.466;2022-07-23T01:27:48;99416.61;;;23.54;51.41
63883;BME280;50047;50.596;30.466;2022-07-23T01:30:16;99420.60;;;23.31;51.44
63883;BME280;50047;50.596;30.466;2022-07-23T01:32:43;99420.95;;;23.09;51.50
63883;BME280;50047;50.596;30.466;2022-07-23T01:35:10;99420.58;;;22.86;52.03
63883;BME280;50047;50.596;30.466;2022-07-23T01:37:38;99419.91;;;22.74;52.00
63883;BME280;50047;50.596;30.466;2022-07-23T01:40:06;99423.95;;;22.57;53.06
63883;BME280;50047;50.596;30.466;2022-07-23T01:42:35;99421.30;;;22.99;53.50
63883;BME280;50047;50.596;30.466;2022-07-23T01:45:04;99418.63;;;23.44;52.58
63883;BME280;50047;50.596;30.466;2022-07-23T01:47:32;99417.89;;;23.58;51.86
63883;BME280;50047;50.596;30.466;2022-07-23T01:50:01;99421.36;;;23.50;51.60
63883;BME280;50047;50.596;30.466;2022-07-23T01:53:03;99423.84;;;23.28;51.73
63883;BME280;50047;50.596;30.466;2022-07-23T01:55:30;99424.71;;;23.09;51.93
63883;BME280;50047;50.596;30.466;2022-07-23T01:57:58;99427.29;;;22.96;52.22
63883;BME280;50047;50.596;30.466;2022-07-23T02:00:28;99432.58;;;22.85;52.99
63883;BME280;50047;50.596;30.466;2022-07-23T02:02:55;99427.75;;;23.21;53.55
63883;BME280;50047;50.596;30.466;2022-07-23T02:05:23;99425.23;;;23.49;53.16
63883;BME280;50047;50.596;30.466;2022-07-23T02:07:50;99423.52;;;23.55;52.77
63883;BME280;50047;50.596;30.466;2022-07-23T02:10:17;99423.52;;;23.45;52.97
63883;BME280;50047;50.596;30.466;2022-07-23T02:12:44;99427.84;;;23.36;53.13
63883;BME280;50047;50.596;30.466;2022-07-23T02:15:12;99427.44;;;23.30;53.44
63883;BME280;50047;50.596;30.466;2022-07-23T02:17:40;99424.68;;;23.22;53.96
63883;BME280;50047;50.596;30.466;2022-07-23T02:20:08;99425.69;;;23.56;54.77
63883;BME280;50047;50.596;30.466;2022-07-23T02:22:37;99430.04;;;24.10;53.87
63883;BME280;50047;50.596;30.466;2022-07-23T02:25:05;99428.79;;;24.45;52.72
63883;BME280;50047;50.596;30.466;2022-07-23T02:27:33;99426.94;;;24.59;51.77
63883;BME280;50047;50.596;30.466;2022-07-23T02:30:01;99428.44;;;24.64;51.09
63883;BME280;50047;50.596;30.466;2022-07-23T02:32:29;99427.27;;;24.65;50.82
63883;BME280;50047;50.596;30.466;2022-07-23T02:34:56;99428.03;;;24.71;50.35
63883;BME280;50047;50.596;30.466;2022-07-23T02:37:24;99427.23;;;24.81;49.97
63883;BME280;50047;50.596;30.466;2022-07-23T02:39:52;99429.59;;;24.88;49.92
63883;BME280;50047;50.596;30.466;2022-07-23T02:42:19;99423.66;;;25.01;49.34
63883;BME280;50047;50.596;30.466;2022-07-23T02:44:48;99428.74;;;25.25;48.53
63883;BME280;50047;50.596;30.466;2022-07-23T02:47:15;99431.20;;;25.50;48.07
63883;BME280;50047;50.596;30.466;2022-07-23T02:49:44;99427.30;;;25.77;47.36
63883;BME280;50047;50.596;30.466;2022-07-23T02:52:11;99429.45;;;26.06;46.84
63883;BME280;50047;50.596;30.466;2022-07-23T02:54:41;99432.98;;;26.28;46.31
63883;BME280;50047;50.596;30.466;2022-07-23T02:57:09;99439.21;;;26.34;46.39
63883;BME280;50047;50.596;30.466;2022-07-23T02:59:36;99435.79;;;26.63;45.56
63883;BME280;50047;50.596;30.466;2022-07-23T03:02:03;99437.79;;;26.93;45.26
63883;BME280;50047;50.596;30.466;2022-07-23T03:04:30;99436.65;;;27.24;44.64
63883;BME280;50047;50.596;30.466;2022-07-23T03:06:57;99437.97;;;27.54;44.16
63883;BME280;50047;50.596;30.466;2022-07-23T03:09:25;99443.85;;;27.87;43.77
63883;BME280;50047;50.596;30.466;2022-07-23T03:11:52;99441.38;;;28.17;43.30
63883;BME280;50047;50.596;30.466;2022-07-23T03:14:19;99445.83;;;28.73;42.61
63883;BME280;50047;50.596;30.466;2022-07-23T03:16:47;99450.05;;;29.35;41.81
63883;BME280;50047;50.596;30.466;2022-07-23T03:19:16;99453.13;;;30.03;40.39
63883;BME280;50047;50.596;30.466;2022-07-23T03:21:43;99453.10;;;30.46;39.96
63883;BME280;50047;50.596;30.466;2022-07-23T03:24:11;99455.56;;;30.92;39.43
63883;BME280;50047;50.596;30.466;2022-07-23T03:26:38;99460.73;;;31.33;39.53
63883;BME280;50047;50.596;30.466;2022-07-23T03:29:06;99462.94;;;32.00;38.13
63883;BME280;50047;50.596;30.466;2022-07-23T03:31:34;99463.03;;;32.38;36.93
63883;BME280;50047;50.596;30.466;2022-07-23T03:34:02;99461.70;;;33.04;35.97
63883;BME280;50047;50.596;30.466;2022-07-23T03:36:29;99467.02;;;33.47;35.12
63883;BME280;50047;50.596;30.466;2022-07-23T03:38:57;99465.91;;;33.89;34.60
63883;BME280;50047;50.596;30.466;2022-07-23T03:41:27;99462.74;;;34.45;33.81
63883;BME280;50047;50.596;30.466;2022-07-23T03:43:56;99465.88;;;35.02;33.05
63883;BME280;50047;50.596;30.466;2022-07-23T03:46:23;99471.73;;;35.48;31.47
63883;BME280;50047;50.596;30.466;2022-07-23T03:48:51;99471.93;;;35.56;31.25
63883;BME280;50047;50.596;30.466;2022-07-23T03:51:24;99474.00;;;35.79;31.38
63883;BME280;50047;50.596;30.466;2022-07-23T03:53:51;99473.48;;;36.16;31.69
63883;BME280;50047;50.596;30.466;2022-07-23T03:56:19;99474.83;;;36.63;30.71
63883;BME280;50047;50.596;30.466;2022-07-23T03:58:46;99467.63;;;36.97;30.35
63883;BME280;50047;50.596;30.466;2022-07-23T04:01:13;99467.29;;;37.24;29.98
63883;BME280;50047;50.596;30.466;2022-07-23T04:03:41;99468.79;;;37.44;29.75
63883;BME280;50047;50.596;30.466;2022-07-23T04:06:10;99470.95;;;37.66;29.24
63883;BME280;50047;50.596;30.466;2022-07-23T04:08:37;99470.66;;;38.21;28.74
63883;BME280;50047;50.596;30.466;2022-07-23T04:11:05;99473.67;;;38.41;28.64
63883;BME280;50047;50.596;30.466;2022-07-23T04:13:32;99476.52;;;38.43;28.26
63883;BME280;50047;50.596;30.466;2022-07-23T04:16:00;99475.21;;;38.57;28.21
63883;BME280;50047;50.596;30.466;2022-07-23T04:18:28;99474.39;;;38.84;27.66
63883;BME280;50047;50.596;30.466;2022-07-23T04:21:01;99469.64;;;39.14;27.45
63883;BME280;50047;50.596;30.466;2022-07-23T04:23:28;99471.29;;;39.57;26.70
63883;BME280;50047;50.596;30.466;2022-07-23T04:25:55;99473.23;;;40.16;26.41
63883;BME280;50047;50.596;30.466;2022-07-23T04:28:23;99473.71;;;40.48;26.11
63883;BME280;50047;50.596;30.466;2022-07-23T04:30:51;99470.05;;;40.68;25.95
63883;BME280;50047;50.596;30.466;2022-07-23T04:33:20;99466.62;;;40.79;25.16
63883;BME280;50047;50.596;30.466;2022-07-23T04:35:48;99468.57;;;41.02;24.98
63883;BME280;50047;50.596;30.466;2022-07-23T04:38:18;99465.09;;;41.61;24.41
63883;BME280;50047;50.596;30.466;2022-07-23T04:40:48;99463.06;;;42.12;24.10
63883;BME280;50047;50.596;30.466;2022-07-23T04:43:15;99470.12;;;42.10;24.31
63883;BME280;50047;50.596;30.466;2022-07-23T04:45:47;99468.33;;;42.41;23.70
63883;BME280;50047;50.596;30.466;2022-07-23T04:48:15;99475.71;;;42.53;23.47
63883;BME280;50047;50.596;30.466;2022-07-23T04:50:43;99478.39;;;42.62;23.40
63883;BME280;50047;50.596;30.466;2022-07-23T04:53:22;99480.58;;;42.88;23.37
63883;BME280;50047;50.596;30.466;2022-07-23T04:55:52;99481.05;;;43.06;23.01
63883;BME280;50047;50.596;30.466;2022-07-23T04:58:19;99478.52;;;43.41;22.56
63883;BME280;50047;50.596;30.466;2022-07-23T05:00:47;99481.39;;;43.67;22.47
63883;BME280;50047;50.596;30.466;2022-07-23T05:03:15;99483.21;;;43.91;22.03
63883;BME280;50047;50.596;30.466;2022-07-23T05:05:42;99479.08;;;44.25;21.15
63883;BME280;50047;50.596;30.466;2022-07-23T05:08:12;99485.33;;;44.74;20.87
63883;BME280;50047;50.596;30.466;2022-07-23T05:10:40;99485.59;;;45.12;20.72
63883;BME280;50047;50.596;30.466;2022-07-23T05:13:08;99489.45;;;45.45;20.48
63883;BME280;50047;50.596;30.466;2022-07-23T05:15:35;99486.34;;;45.56;20.02
63883;BME280;50047;50.596;30.466;2022-07-23T05:18:03;99491.34;;;45.81;19.86
63883;BME280;50047;50.596;30.466;2022-07-23T05:20:31;99488.34;;;45.94;19.72
63883;BME280;50047;50.596;30.466;2022-07-23T05:22:58;99493.16;;;46.31;19.44
63883;BME280;50047;50.596;30.466;2022-07-23T05:25:25;99493.22;;;46.54;19.29
63883;BME280;50047;50.596;30.466;2022-07-23T05:27:53;99491.77;;;46.64;19.03
63883;BME280;50047;50.596;30.466;2022-07-23T05:30:20;99491.99;;;46.91;18.83
63883;BME280;50047;50.596;30.466;2022-07-23T05:32:49;99491.40;;;47.10;18.51
63883;BME280;50047;50.596;30.466;2022-07-23T05:35:17;99495.31;;;47.19;18.30
63883;BME280;50047;50.596;30.466;2022-07-23T05:37:53;99494.81;;;47.63;17.64
63883;BME280;50047;50.596;30.466;2022-07-23T05:40:21;99500.24;;;47.89;18.02
63883;BME280;50047;50.596;30.466;2022-07-23T05:42:48;99503.29;;;48.29;17.28
63883;BME280;50047;50.596;30.466;2022-07-23T05:45:15;99503.27;;;48.55;17.33
63883;BME280;50047;50.596;30.466;2022-07-23T05:47:46;99496.66;;;48.73;17.17
63883;BME280;50047;50.596;30.466;2022-07-23T05:50:18;99503.85;;;49.09;16.61
63883;BME280;50047;50.596;30.466;2022-07-23T05:52:50;99504.89;;;49.64;16.12
63883;BME280;50047;50.596;30.466;2022-07-23T05:55:37;99504.66;;;50.08;15.94
63883;BME280;50047;50.596;30.466;2022-07-23T05:58:04;99503.73;;;50.34;15.58
63883;BME280;50047;50.596;30.466;2022-07-23T06:00:31;99500.44;;;50.54;15.49
63883;BME280;50047;50.596;30.466;2022-07-23T06:02:58;99499.64;;;50.77;15.34
63883;BME280;50047;50.596;30.466;2022-07-23T06:05:27;99501.44;;;51.12;15.24
63883;BME280;50047;50.596;30.466;2022-07-23T06:07:56;99497.39;;;51.31;14.94
63883;BME280;50047;50.596;30.466;2022-07-23T06:10:23;99498.42;;;51.26;14.32
63883;BME280;50047;50.596;30.466;2022-07-23T06:12:50;99496.65;;;51.39;14.33
63883;BME280;50047;50.596;30.466;2022-07-23T06:15:20;99496.95;;;51.56;13.94
63883;BME280;50047;50.596;30.466;2022-07-23T06:17:48;99497.23;;;51.37;14.27
63883;BME280;50047;50.596;30.466;2022-07-23T06:20:15;99491.86;;;51.50;14.01
63883;BME280;50047;50.596;30.466;2022-07-23T06:22:42;99489.31;;;51.62;14.07
63883;BME280;50047;50.596;30.466;2022-07-23T06:25:11;99492.70;;;51.91;13.73
63883;BME280;50047;50.596;30.466;2022-07-23T06:27:46;99495.21;;;52.08;13.25
63883;BME280;50047;50.596;30.466;2022-07-23T06:30:14;99492.89;;;52.08;13.39
63883;BME280;50047;50.596;30.466;2022-07-23T06:32:45;99496.66;;;51.83;13.60
63883;BME280;50047;50.596;30.466;2022-07-23T06:35:14;99495.49;;;51.15;13.47
63883;BME280;50047;50.596;30.466;2022-07-23T06:37:42;99491.50;;;50.68;14.23
63883;BME280;50047;50.596;30.466;2022-07-23T06:40:11;99497.54;;;50.89;13.83
63883;BME280;50047;50.596;30.466;2022-07-23T06:42:39;99503.81;;;51.00;13.71
63883;BME280;50047;50.596;30.466;2022-07-23T06:45:09;99501.52;;;51.39;13.64
63883;BME280;50047;50.596;30.466;2022-07-23T06:47:36;99497.77;;;51.42;13.70
63883;BME280;50047;50.596;30.466;2022-07-23T06:50:04;99501.94;;;51.42;13.15
63883;BME280;50047;50.596;30.466;2022-07-23T06:52:32;99502.98;;;51.28;13.38
63883;BME280;50047;50.596;30.466;2022-07-23T06:54:59;99502.48;;;51.28;13.29
63883;BME280;50047;50.596;30.466;2022-07-23T06:57:26;99507.35;;;51.12;13.02
63883;BME280;50047;50.596;30.466;2022-07-23T06:59:54;99506.52;;;50.72;13.30
63883;BME280;50047;50.596;30.466;2022-07-23T07:02:22;99503.31;;;50.21;13.83
63883;BME280;50047;50.596;30.466;2022-07-23T07:04:49;99502.80;;;49.51;14.20
63883;BME280;50047;50.596;30.466;2022-07-23T07:07:16;99496.77;;;48.52;14.92
63883;BME280;50047;50.596;30.466;2022-07-23T07:09:44;99496.27;;;46.88;15.82
63883;BME280;50047;50.596;30.466;2022-07-23T07:12:14;99499.23;;;44.92;17.13
63883;BME280;50047;50.596;30.466;2022-07-23T07:14:41;99497.31;;;42.97;18.61
63883;BME280;50047;50.596;30.466;2022-07-23T07:17:08;99499.33;;;41.23;19.66
63883;BME280;50047;50.596;30.466;2022-07-23T07:19:37;99495.05;;;39.62;21.20
63883;BME280;50047;50.596;30.466;2022-07-23T07:22:04;99491.64;;;38.14;22.59
63883;BME280;50047;50.596;30.466;2022-07-23T07:24:32;99493.98;;;36.64;24.38
63883;BME280;50047;50.596;30.466;2022-07-23T07:27:04;99493.70;;;35.70;25.42
63883;BME280;50047;50.596;30.466;2022-07-23T07:29:31;99492.00;;;35.06;26.35
63883;BME280;50047;50.596;30.466;2022-07-23T07:31:59;99492.35;;;34.53;26.84
63883;BME280;50047;50.596;30.466;2022-07-23T07:34:26;99487.67;;;34.02;27.92
63883;BME280;50047;50.596;30.466;2022-07-23T07:36:54;99491.30;;;33.58;28.63
63883;BME280;50047;50.596;30.466;2022-07-23T07:39:21;99489.42;;;33.25;28.53
63883;BME280;50047;50.596;30.466;2022-07-23T07:41:48;99480.66;;;32.95;29.42
63883;BME280;50047;50.596;30.466;2022-07-23T07:44:15;99481.23;;;32.62;30.14
63883;BME280;50047;50.596;30.466;2022-07-23T07:46:43;99480.08;;;32.32;30.20
63883;BME280;50047;50.596;30.466;2022-07-23T07:49:10;99488.95;;;32.09;30.70
63883;BME280;50047;50.596;30.466;2022-07-23T07:51:42;99493.10;;;31.86;31.07
63883;BME280;50047;50.596;30.466;2022-07-23T07:54:12;99492.31;;;31.71;31.26
63883;BME280;50047;50.596;30.466;2022-07-23T07:56:39;99486.86;;;31.51;31.75
63883;BME280;50047;50.596;30.466;2022-07-23T07:59:07;99494.85;;;31.25;32.08
63883;BME280;50047;50.596;30.466;2022-07-23T08:01:36;99495.29;;;31.06;32.81
63883;BME280;50047;50.596;30.466;2022-07-23T08:04:04;99489.80;;;30.84;32.74
63883;BME280;50047;50.596;30.466;2022-07-23T08:06:32;99490.36;;;30.80;33.11
63883;BME280;50047;50.596;30.466;2022-07-23T08:08:59;99492.13;;;30.66;33.55
63883;BME280;50047;50.596;30.466;2022-07-23T08:11:27;99495.40;;;30.68;33.44
63883;BME280;50047;50.596;30.466;2022-07-23T08:13:54;99497.40;;;30.75;33.21
63883;BME280;50047;50.596;30.466;2022-07-23T08:16:21;99493.83;;;30.74;33.29
63883;BME280;50047;50.596;30.466;2022-07-23T08:18:49;99493.35;;;30.74;33.55
63883;BME280;50047;50.596;30.466;2022-07-23T08:21:16;99490.71;;;30.71;33.30
63883;BME280;50047;50.596;30.466;2022-07-23T08:23:44;99489.66;;;30.63;33.39
63883;BME280;50047;50.596;30.466;2022-07-23T08:26:11;99487.98;;;30.43;33.81
63883;BME280;50047;50.596;30.466;2022-07-23T08:28:38;99484.95;;;30.40;33.91
63883;BME280;50047;50.596;30.466;2022-07-23T08:31:06;99483.24;;;30.43;33.82
63883;BME280;50047;50.596;30.466;2022-07-23T08:33:33;99486.71;;;30.43;34.26
63883;BME280;50047;50.596;30.466;2022-07-23T08:36:02;99484.45;;;30.44;34.03
63883;BME280;50047;50.596;30.466;2022-07-23T08:38:32;99480.08;;;30.43;34.12
63883;BME280;50047;50.596;30.466;2022-07-23T08:40:59;99480.88;;;30.33;34.07
63883;BME280;50047;50.596;30.466;2022-07-23T08:43:29;99477.41;;;30.28;34.13
63883;BME280;50047;50.596;30.466;2022-07-23T08:45:59;99476.25;;;30.34;34.27
63883;BME280;50047;50.596;30.466;2022-07-23T08:48:31;99478.43;;;30.33;33.96
63883;BME280;50047;50.596;30.466;2022-07-23T08:51:00;99475.87;;;30.25;34.28
63883;BME280;50047;50.596;30.466;2022-07-23T08:53:30;99476.79;;;30.24;34.50
63883;BME280;50047;50.596;30.466;2022-07-23T08:56:00;99478.52;;;30.19;34.66
63883;BME280;50047;50.596;30.466;2022-07-23T08:58:31;99479.98;;;30.12;34.89
63883;BME280;50047;50.596;30.466;2022-07-23T09:01:00;99473.94;;;30.13;34.67
63883;BME280;50047;50.596;30.466;2022-07-23T09:03:31;99473.77;;;30.17;34.78
63883;BME280;50047;50.596;30.466;2022-07-23T09:05:59;99475.40;;;30.11;34.88
63883;BME280;50047;50.596;30.466;2022-07-23T09:08:39;99472.77;;;30.08;35.10
63883;BME280;50047;50.596;30.466;2022-07-23T09:11:09;99473.81;;;30.11;34.79
63883;BME280;50047;50.596;30.466;2022-07-23T09:13:42;99470.45;;;30.16;34.56
63883;BME280;50047;50.596;30.466;2022-07-23T09:16:32;99470.05;;;30.21;34.73
63883;BME280;50047;50.596;30.466;2022-07-23T09:19:03;99467.61;;;30.16;34.90
63883;BME280;50047;50.596;30.466;2022-07-23T09:21:33;99469.70;;;30.14;34.96
63883;BME280;50047;50.596;30.466;2022-07-23T09:24:01;99466.23;;;30.15;35.40
63883;BME280;50047;50.596;30.466;2022-07-23T09:29:13;99461.77;;;30.21;34.99
63883;BME280;50047;50.596;30.466;2022-07-23T09:31:46;99459.84;;;30.29;34.82
63883;BME280;50047;50.596;30.466;2022-07-23T09:36:52;99462.44;;;30.33;35.10
63883;BME280;50047;50.596;30.466;2022-07-23T09:39:31;99460.30;;;30.48;35.23
63883;BME280;50047;50.596;30.466;2022-07-23T09:42:16;99463.64;;;30.50;34.99
63883;BME280;50047;50.596;30.466;2022-07-23T09:44:46;99463.52;;;30.47;34.90
63883;BME280;50047;50.596;30.466;2022-07-23T09:47:14;99463.04;;;30.47;34.57
63883;BME280;50047;50.596;30.466;2022-07-23T09:50:02;99457.45;;;30.38;34.53
63883;BME280;50047;50.596;30.466;2022-07-23T09:52:37;99454.61;;;30.42;34.62
63883;BME280;50047;50.596;30.466;2022-07-23T09:55:09;99455.16;;;30.51;34.36
63883;BME280;50047;50.596;30.466;2022-07-23T09:57:37;99459.25;;;30.55;34.96
63883;BME280;50047;50.596;30.466;2022-07-23T10:00:09;99460.30;;;30.57;34.19
63883;BME280;50047;50.596;30.466;2022-07-23T10:02:39;99463.52;;;30.62;33.73
63883;BME280;50047;50.596;30.466;2022-07-23T10:05:26;99459.17;;;30.61;33.73
63883;BME280;50047;50.596;30.466;2022-07-23T10:08:13;99459.74;;;30.62;33.60
63883;BME280;50047;50.596;30.466;2022-07-23T10:11:02;99452.57;;;30.74;33.10
63883;BME280;50047;50.596;30.466;2022-07-23T10:13:40;99447.16;;;30.82;32.84
63883;BME280;50047;50.596;30.466;2022-07-23T10:16:19;99444.59;;;30.91;32.59
63883;BME280;50047;50.596;30.466;2022-07-23T10:18:54;99449.55;;;30.97;32.82
63883;BME280;50047;50.596;30.466;2022-07-23T10:21:27;99446.38;;;30.83;33.26
63883;BME280;50047;50.596;30.466;2022-07-23T10:26:50;99446.75;;;30.81;33.07
63883;BME280;50047;50.596;30.466;2022-07-23T10:32:20;99442.27;;;30.76;32.88
63883;BME280;50047;50.596;30.466;2022-07-23T10:37:36;99445.05;;;30.91;32.50
63883;BME280;50047;50.596;30.466;2022-07-23T10:42:36;99432.71;;;31.00;32.52
63883;BME280;50047;50.596;30.466;2022-07-23T10:45:32;99434.00;;;31.08;32.60
63883;BME280;50047;50.596;30.466;2022-07-23T10:51:11;99433.78;;;31.16;31.85
63883;BME280;50047;50.596;30.466;2022-07-23T10:56:48;99436.52;;;31.27;31.77
63883;BME280;50047;50.596;30.466;2022-07-23T10:59:04;99433.44;;;31.26;31.86
63883;BME280;50047;50.596;30.466;2022-07-23T11:01:37;99430.42;;;31.25;31.56
63883;BME280;50047;50.596;30.466;2022-07-23T11:04:05;99426.60;;;31.29;31.56
63883;BME280;50047;50.596;30.466;2022-07-23T11:09:27;99429.51;;;31.20;31.52
63883;BME280;50047;50.596;30.466;2022-07-23T11:25:34;99423.52;;;31.52;31.50
63883;BME280;50047;50.596;30.466;2022-07-23T11:28:17;99425.98;;;31.61;31.16
63883;BME280;50047;50.596;30.466;2022-07-23T11:30:48;99426.77;;;31.52;31.17
63883;BME280;50047;50.596;30.466;2022-07-23T11:33:20;99425.03;;;31.53;30.87
63883;BME280;50047;50.596;30.466;2022-07-23T11:35:59;99418.07;;;31.59;30.85
63883;BME280;50047;50.596;30.466;2022-07-23T11:38:27;99417.16;;;31.63;30.77
63883;BME280;50047;50.596;30.466;2022-07-23T11:40:57;99414.96;;;31.50;31.04
63883;BME280;50047;50.596;30.466;2022-07-23T11:43:25;99409.14;;;31.43;31.04
63883;BME280;50047;50.596;30.466;2022-07-23T11:45:57;99409.02;;;31.39;31.30
63883;BME280;50047;50.596;30.466;2022-07-23T11:48:28;99402.08;;;31.62;31.24
63883;BME280;50047;50.596;30.466;2022-07-23T11:50:57;99400.70;;;31.85;30.82
63883;BME280;50047;50.596;30.466;2022-07-23T11:53:32;99395.92;;;32.00;30.58
63883;BME280;50047;50.596;30.466;2022-07-23T11:56:08;99396.38;;;32.08;30.24
63883;BME280;50047;50.596;30.466;2022-07-23T11:58:36;99399.50;;;32.13;30.10
63883;BME280;50047;50.596;30.466;2022-07-23T12:01:04;99395.58;;;32.18;30.27
63883;BME280;50047;50.596;30.466;2022-07-23T12:03:31;99397.48;;;32.28;30.24
63883;BME280;50047;50.596;30.466;2022-07-23T12:05:59;99400.39;;;32.37;29.93
63883;BME280;50047;50.596;30.466;2022-07-23T12:08:27;99393.45;;;32.41;29.88
63883;BME280;50047;50.596;30.466;2022-07-23T12:10:56;99393.65;;;32.47;29.86
63883;BME280;50047;50.596;30.466;2022-07-23T12:13:23;99395.42;;;32.54;30.02
63883;BME280;50047;50.596;30.466;2022-07-23T12:15:53;99395.19;;;32.54;29.90
63883;BME280;50047;50.596;30.466;2022-07-23T12:18:23;99395.97;;;32.50;30.24
63883;BME280;50047;50.596;30.466;2022-07-23T12:20:54;99393.67;;;32.52;29.75
63883;BME280;50047;50.596;30.466;2022-07-23T12:23:24;99398.95;;;32.49;29.65
63883;BME280;50047;50.596;30.466;2022-07-23T12:25:52;99392.08;;;32.47;30.07
63883;BME280;50047;50.596;30.466;2022-07-23T12:28:27;99393.41;;;32.47;29.80
63883;BME280;50047;50.596;30.466;2022-07-23T12:30:57;99392.94;;;32.45;29.82
63883;BME280;50047;50.596;30.466;2022-07-23T12:33:29;99389.86;;;32.51;29.94
63883;BME280;50047;50.596;30.466;2022-07-23T12:36:00;99390.18;;;32.50;29.78
63883;BME280;50047;50.596;30.466;2022-07-23T12:38:35;99388.89;;;32.45;30.19
63883;BME280;50047;50.596;30.466;2022-07-23T12:41:03;99386.30;;;32.34;30.07
63883;BME280;50047;50.596;30.466;2022-07-23T12:43:36;99387.92;;;32.09;30.45
63883;BME280;50047;50.596;30.466;2022-07-23T12:46:14;99381.52;;;31.86;30.69
63883;BME280;50047;50.596;30.466;2022-07-23T12:54:06;99369.33;;;32.06;30.34
63883;BME280;50047;50.596;30.466;2022-07-23T12:56:38;99367.80;;;32.15;30.19
63883;BME280;50047;50.596;30.466;2022-07-23T12:59:07;99361.21;;;32.34;30.08
63883;BME280;50047;50.596;30.466;2022-07-23T13:01:40;99366.27;;;32.20;30.38
63883;BME280;50047;50.596;30.466;2022-07-23T13:04:23;99368.34;;;32.12;30.68
63883;BME280;50047;50.596;30.466;2022-07-23T13:06:52;99366.77;;;32.01;30.53
63883;BME280;50047;50.596;30.466;2022-07-23T13:09:25;99363.92;;;32.03;30.86
63883;BME280;50047;50.596;30.466;2022-07-23T13:11:54;99361.19;;;32.07;30.82
63883;BME280;50047;50.596;30.466;2022-07-23T13:14:24;99357.09;;;32.08;30.66
63883;BME280;50047;50.596;30.466;2022-07-23T13:16:53;99358.52;;;32.08;30.18
63883;BME280;50047;50.596;30.466;2022-07-23T13:19:23;99362.80;;;31.98;30.54
63883;BME280;50047;50.596;30.466;2022-07-23T13:21:53;99360.18;;;32.00;30.43
63883;BME280;50047;50.596;30.466;2022-07-23T13:24:20;99361.89;;;32.17;30.56
63883;BME280;50047;50.596;30.466;2022-07-23T13:26:48;99357.39;;;32.18;30.42
63883;BME280;50047;50.596;30.466;2022-07-23T13:29:19;99356.57;;;32.11;30.22
63883;BME280;50047;50.596;30.466;2022-07-23T13:31:46;99360.59;;;32.00;30.49
63883;BME280;50047;50.596;30.466;2022-07-23T13:34:17;99359.79;;;32.11;30.40
63883;BME280;50047;50.596;30.466;2022-07-23T13:36:46;99357.48;;;32.20;30.43
63883;BME280;50047;50.596;30.466;2022-07-23T13:39:13;99356.79;;;32.22;30.36
63883;BME280;50047;50.596;30.466;2022-07-23T13:41:40;99354.73;;;32.20;30.44
63883;BME280;50047;50.596;30.466;2022-07-23T13:44:16;99349.00;;;32.25;30.28
63883;BME280;50047;50.596;30.466;2022-07-23T13:46:46;99346.42;;;32.22;30.54